METAR LOCAUX

2021/06/18 03:30 LFST 180330Z AUTO 10005KT CAVOK 21/16 Q1014 TEMPO 28010KT FEW090CB
2021/06/18 03:20 EDSB 180320Z VRB02KT CAVOK 22/16 Q1014
2021/06/18 03:30 LFGA 180330Z AUTO 13005KT 9999 ///TCU 23/15 Q1014
www.noaa.gov

Ne pas utiliser pour préparer ou effectuer un vol: Utilisez la documentation officielle disponible sur aviation.meteo.fr (Aéroweb)


"Le soleil du matin ne dure pas forcément toute la journée."

Animation satellite IR

Meteociel.fr

"Derrière chaque nuage se cache le ciel bleu."

Radar pluie

Infoclimat.fr

"Si tu veux l’arc-en-ciel, tu dois supporter la pluie."
Dolly Parton

Nébulosité (octas)

Meteociel.fr

"Le soleil est souvent obscurci par les nuages et la raison par les passions."
Démophile

Impacts de foudre

www.meteo60.fr

"Celui que frappe la foudre n'entend pas le tonnerre."

Vigilance météo

vigilance-meteo.fr

"Tout nuage n'enfante pas une tempête."
William Shakespeare

TAF locaux

2021/06/17 18:22 TAF LFST 171700Z 1718/1818 13006KT CAVOK PROB30 TEMPO 1804/1807 28010KT -SHRA FEW090CB BKN100 BECMG 1810/1812 FEW070CB PROB40 TEMPO 1814/1818 29018G30KT 2000 TSRA SCT070CB
2021/06/17 18:30 TAF EDSB 171700Z 1718/1818 VRB03KT CAVOK BECMG 1808/1810 32005KT PROB30 TEMPO 1812/1818 34025G40KT 3000 TSRAGR BKN060CB
www.noaa.gov

Ne pas utiliser pour préparer ou effectuer un vol: Utilisez la documentation officielle disponible sur aviation.meteo.fr (Aéroweb)


"Les jours où le ciel est gris, le soleil n'a pas disparu à tout jamais."
Arnaud Desjardins

Prévisions 7 jours


Meteoblue.com

"Quand les crapauds chantent, le beau temps s'avance !"